Nearby METAR Reports

 

KICL - Clarinda, Iowa, USA
Distance from station: N 49mi, 79km
Updated: Thu, 21-Mar-2019 9:15pm CDT
Clear
Clear
 Wind from calm
Wind: Calm
Temperature: 36°F , 2°C
Dew Point: 32°F , 0°C
Humidity: 87%
Barometer: 30.15 inHg , 1021 hPa
Clouds: Clear
Visibility: 10 miles , 16 km
2019/03/22 02:15 KICL 220215Z AUTO 00000KT 10SM CLR 02/00 A3015 RMK AO2
KDSM - Des Moines, Iowa, USA
Distance from station: NNE 122mi, 196km
Updated: Thu, 21-Mar-2019 8:54pm CDT
Clear
Clear
 Wind from WNW
Wind: WNW 7 mph , 11 km/h
Temperature: 45°F , 7°C
Wind Chill: 41°F , 5°C
Dew Point: 34°F , 1°C
Humidity: 66%
Barometer: 30.11 inHg , 1019.6 hPa
Clouds: Clear
Visibility: 10 miles , 16 km
2019/03/22 01:54 KDSM 220154Z 29006KT 10SM CLR 07/01 A3011 RMK AO2 SLP203 T00720006
KFNB - Falls City, Nebraska, USA
Distance from station: W 50mi, 80km
Updated: Thu, 21-Mar-2019 8:53pm CDT
Clear
Clear
 Wind from SSE
Wind: SSE 3 mph , 6 km/h
Temperature: 48°F , 9°C
Dew Point: 34°F , 1°C
Humidity: 58%
Barometer: 30.15 inHg , 1021 hPa
Clouds: Clear
Visibility: 10 miles , 16 km
2019/03/22 01:53 KFNB 220153Z AUTO 16003KT 10SM CLR 09/01 A3015 RMK AO2 SLP215 T00890006
 
KMCI - Kansas City, Missouri, USA
Distance from station: S 65mi, 104km
Updated: Thu, 21-Mar-2019 8:53pm CDT
Clear
Clear
 Wind from NNE
Wind: NNE 3 mph , 6 km/h
Temperature: 46°F , 8°C
Dew Point: 28°F , -2°C
Humidity: 50%
Barometer: 30.15 inHg , 1021 hPa
Clouds: Clear
Visibility: 10 miles , 16 km
2019/03/22 01:53 KMCI 220153Z 03003KT 10SM CLR 08/M02 A3015 RMK AO2 SLP214 T00831017
KOMA - Omaha, Nebraska, USA
Distance from station: NNW 105mi, 169km
Updated: Thu, 21-Mar-2019 8:52pm CDT
Clear
Clear
 Wind from SW
Wind: SW 3 mph , 6 km/h
Temperature: 48°F , 9°C
Dew Point: 30°F , -1°C
Humidity: 50%
Barometer: 30.13 inHg , 1020.3 hPa
Clouds: Clear
Visibility: 10 miles , 16 km
2019/03/22 01:52 KOMA 220152Z 22003KT 10SM CLR 09/M01 A3013 RMK AO2 SLP209 T00941006
KRDK - Red Oak, Iowa, USA
Distance from station: N 70mi, 112km
Updated: Thu, 21-Mar-2019 9:15pm CDT
Clear
Clear
 Wind from W
Wind: W 5 mph , 7 km/h
Temperature: 41°F , 5°C
Wind Chill: 38°F , 3°C
Dew Point: 34°F , 1°C
Humidity: 76%
Barometer: 30.14 inHg , 1020.7 hPa
Clouds: Clear
Visibility: 10 miles , 16 km
2019/03/22 02:15 KRDK 220215Z AUTO 27004KT 10SM CLR 05/01 A3014 RMK AO2
 
KSTJ - Saint Joseph, Missouri, USA
Distance from station: SW 23mi, 37km
Updated: Thu, 21-Mar-2019 8:53pm CDT
Clear
Clear
 Wind from NNE
Wind: NNE 3 mph , 6 km/h
Temperature: 39°F , 4°C
Dew Point: 32°F , 0°C
Humidity: 75%
Barometer: 30.16 inHg , 1021.3 hPa
Clouds: Clear
Visibility: 10 miles , 16 km
2019/03/22 01:53 KSTJ 220153Z AUTO 02003KT 10SM CLR 04/00 A3016 RMK AO2 SLP218 T00440000
KTOP - Topeka, Kansas, USA
Distance from station: SW 85mi, 137km
Updated: Thu, 21-Mar-2019 8:53pm CDT
Clear
Clear
 Wind from calm
Wind: Calm
Temperature: 46°F , 8°C
Dew Point: 34°F , 1°C
Humidity: 62%
Barometer: 30.16 inHg , 1021.3 hPa
Clouds: Clear
Visibility: 10 miles , 16 km
2019/03/22 01:53 KTOP 220153Z AUTO 00000KT 10SM CLR 08/01 A3016 RMK AO2 SLP218 T00830006
KICT - Wichita, Kansas, USA
Distance from station: SW 215mi, 346km
Updated: Thu, 21-Mar-2019 8:53pm CDT
Partly cloudy
Partly cloudy
 Wind from calm
Wind: Calm
Temperature: 48°F , 9°C
Dew Point: 28°F , -2°C
Humidity: 46%
Barometer: 30.16 inHg , 1021.3 hPa
Clouds: Partly cloudy
Visibility: 10 miles , 16 km
Cloud details: Few Clouds 20000 ft
Partly cloudy 25000 ft
2019/03/22 01:53 KICT 220153Z 00000KT 10SM FEW200 SCT250 09/M02 A3016 RMK AO2 SLP216 T00941022